Time;durP1;ratioP1;P1;durP2;ratioP2;P2;SDS_P1;SDS_P2;PMS_P1;PMS_P2;Temp;Humidity;BMP_temperature;BMP_pressure;BME280_temperature;BME280_humidity;BME280_pressure;Samples;Min_cycle;Max_cycle;Signal;HPM_P1;HPM_P2
2023/01/22 00:01:24;;;;;;;;;;;;;;;;;;6122344;23;20009;-72
2023/01/22 00:03:51;;;;;;;;;;;;;;;;;;6122567;23;19932;-73
2023/01/22 00:06:17;;;;;;;;;;;;;;;;;;6096295;23;20563;-73
2023/01/22 00:08:42;;;;;;;;;;;;;;;;;;6122953;23;19913;-74
2023/01/22 00:11:08;;;;;;;;;;;;;;;;;;6122458;23;19913;-73
2023/01/22 00:13:34;;;;;;;;;;;;;;;;;;6122131;23;19921;-72
2023/01/22 00:16:00;;;;;;;;;;;;;;;;;;6122473;23;19917;-73
2023/01/22 00:18:26;;;;;;;;;;;;;;;;;;6122149;23;19913;-73
2023/01/22 00:20:51;;;;;;;;;;;;;;;;;;6048411;23;19937;-72
2023/01/22 00:23:17;;;;;;;;;;;;;;;;;;6095883;23;19919;-73
2023/01/22 00:25:42;;;;;;;;;;;;;;;;;;6122056;23;20048;-73
2023/01/22 00:28:08;;;;;;;;;;;;;;;;;;6122280;23;20210;-72
2023/01/22 00:30:34;;;;;;;;;;;;;;;;;;6095693;23;20081;-73
2023/01/22 00:33:00;;;;;;;;;;;;;;;;;;6096404;23;19921;-73
2023/01/22 00:35:25;;;;;;;;;;;;;;;;;;6095824;23;19913;-72
2023/01/22 00:37:51;;;;;;;;;;;;;;;;;;6096434;23;19913;-72
2023/01/22 00:40:17;;;;;;;;;;;;;;;;;;6095999;23;19959;-72
2023/01/22 00:42:42;;;;;;;;;;;;;;;;;;6121480;23;19917;-73
2023/01/22 00:45:08;;;;;;;;;;;;;;;;;;6095793;23;19913;-74
2023/01/22 00:47:34;;;;;;;;;;;;;;;;;;6121734;23;20028;-73
2023/01/22 00:50:00;;;;;;;;;;;;;;;;;;6122136;23;19924;-73
2023/01/22 00:52:26;;;;;;;;;;;;;;;;;;6121809;23;19920;-73
2023/01/22 00:54:51;;;;;;;;;;;;;;;;;;6122174;23;19913;-73
2023/01/22 00:57:20;;;;;;;;;;;;;;;;;;6122029;23;19928;-73
2023/01/22 00:59:46;;;;;;;;;;;;;;;;;;6072475;23;19920;-74
2023/01/22 01:02:11;;;;;;;;;;;;;;;;;;6122345;23;19913;-73
2023/01/22 01:04:37;;;;;;;;;;;;;;;;;;6121785;23;19913;-73
2023/01/22 01:07:03;;;;;;;;;;;;;;;;;;6121857;23;19940;-73
2023/01/22 01:09:28;;;;;;;;;;;;;;;;;;6072092;23;20290;-74
2023/01/22 01:11:54;;;;;;;;;;;;;;;;;;6121853;23;20470;-74
2023/01/22 01:14:20;;;;;;;;;;;;;;;;;;6121727;23;19969;-72
2023/01/22 01:16:46;;;;;;;;;;;;;;;;;;6095973;23;20269;-73
2023/01/22 01:19:11;;;;;;;;;;;;;;;;;;6095974;23;20370;-74
2023/01/22 01:21:37;;;;;;;;;;;;;;;;;;6071956;23;20302;-73
2023/01/22 01:24:03;;;;;;;;;;;;;;;;;;6122001;23;19912;-73
2023/01/22 01:26:29;;;;;;;;;;;;;;;;;;6095694;23;19913;-73
2023/01/22 01:28:54;;;;;;;;;;;;;;;;;;6122310;23;19987;-73
2023/01/22 01:31:20;;;;;;;;;;;;;;;;;;6095539;23;20007;-73
2023/01/22 01:33:46;;;;;;;;;;;;;;;;;;6096003;23;20366;-73
2023/01/22 01:36:11;;;;;;;;;;;;;;;;;;6095973;23;20413;-73
2023/01/22 01:38:37;;;;;;;;;;;;;;;;;;6121412;23;19991;-73
2023/01/22 01:41:04;;;;;;;;;;;;;;;;;;6095472;23;19913;-73
2023/01/22 01:43:30;;;;;;;;;;;;;;;;;;6071869;23;20369;-74
2023/01/22 01:45:55;;;;;;;;;;;;;;;;;;6121722;23;19936;-72
2023/01/22 01:48:21;;;;;;;;;;;;;;;;;;6095463;23;20366;-72
2023/01/22 01:50:47;;;;;;;;;;;;;;;;;;6121448;23;19913;-73
2023/01/22 01:53:12;;;;;;;;;;;;;;;;;;6121592;23;20007;-73
2023/01/22 01:55:38;;;;;;;;;;;;;;;;;;6121515;23;19913;-74
2023/01/22 01:58:04;;;;;;;;;;;;;;;;;;6095342;23;19960;-75
2023/01/22 02:00:30;;;;;;;;;;;;;;;;;;6121243;23;19923;-73
2023/01/22 02:02:56;;;;;;;;;;;;;;;;;;6071741;23;19916;-73
2023/01/22 02:05:22;;;;;;;;;;;;;;;;;;6121376;23;19912;-75
2023/01/22 02:07:47;;;;;;;;;;;;;;;;;;6071710;23;19931;-74
2023/01/22 02:10:13;;;;;;;;;;;;;;;;;;6071804;23;19978;-75
2023/01/22 02:12:39;;;;;;;;;;;;;;;;;;6095441;23;19932;-74
2023/01/22 02:15:05;;;;;;;;;;;;;;;;;;6121427;23;19913;-74
2023/01/22 02:17:31;;;;;;;;;;;;;;;;;;6121242;23;19924;-74
2023/01/22 02:19:56;;;;;;;;;;;;;;;;;;6121375;23;19913;-74
2023/01/22 02:22:22;;;;;;;;;;;;;;;;;;6095189;23;19913;-74
2023/01/22 02:24:48;;;;;;;;;;;;;;;;;;6121468;23;19916;-74
2023/01/22 02:27:13;;;;;;;;;;;;;;;;;;6095287;23;20417;-74
2023/01/22 02:29:39;;;;;;;;;;;;;;;;;;6120943;23;19919;-73
2023/01/22 02:32:07;;;;;;;;;;;;;;;;;;6095533;23;20346;-74
2023/01/22 02:34:35;;;;;;;;;;;;;;;;;;6095436;23;19921;-74
2023/01/22 02:37:01;;;;;;;;;;;;;;;;;;6095510;23;19913;-74
2023/01/22 02:39:27;;;;;;;;;;;;;;;;;;6095688;23;19913;-74
2023/01/22 02:41:52;;;;;;;;;;;;;;;;;;6095219;23;20281;-74
2023/01/22 02:44:18;;;;;;;;;;;;;;;;;;6095478;23;19913;-74
2023/01/22 02:46:44;;;;;;;;;;;;;;;;;;6121154;23;19913;-75
2023/01/22 02:49:10;;;;;;;;;;;;;;;;;;6071464;23;19924;-73
2023/01/22 02:51:36;;;;;;;;;;;;;;;;;;6095211;23;20266;-75
2023/01/22 02:54:01;;;;;;;;;;;;;;;;;;6095396;23;19921;-73
2023/01/22 02:56:27;;;;;;;;;;;;;;;;;;6095247;23;20408;-73
2023/01/22 02:58:53;;;;;;;;;;;;;;;;;;6095505;23;19917;-74
2023/01/22 03:01:19;;;;;;;;;;;;;;;;;;6095533;23;19936;-75
2023/01/22 03:03:47;;;;;;;;;;;;;;;;;;6095696;23;19943;-74
2023/01/22 03:06:14;;;;;;;;;;;;;;;;;;6122026;23;20369;-73
2023/01/22 03:08:40;;;;;;;;;;;;;;;;;;6122980;23;20332;-74
2023/01/22 03:11:05;;;;;;;;;;;;;;;;;;6097237;23;19913;-73
2023/01/22 03:21:45;;;;;;;;;;;;;;;;;;6123120;23;19919;-74
2023/01/22 03:24:10;;;;;;;;;;;;;;;;;;6123318;23;19921;-73
2023/01/22 03:26:36;;;;;;;;;;;;;;;;;;6096825;23;19914;-74
2023/01/22 03:29:02;;;;;;;;;;;;;;;;;;6097199;23;19913;-75
2023/01/22 03:31:28;;;;;;;;;;;;;;;;;;6072750;23;19928;-75
2023/01/22 03:33:54;;;;;;;;;;;;;;;;;;6097233;23;19928;-75
2023/01/22 03:36:19;;;;;;;;;;;;;;;;;;6097328;23;19913;-75
2023/01/22 03:38:49;;;;;;;;;;;;;;;;;;6097493;23;19919;-76
2023/01/22 03:41:18;;;;;;;;;;;;;;;;;;6097466;23;20000;-76
2023/01/22 03:43:45;;;;;;;;;;;;;;;;;;6096992;23;19913;-74
2023/01/22 03:46:15;;;;;;;;;;;;;;;;;;6097376;23;19995;-74
2023/01/22 03:48:44;;;;;;;;;;;;;;;;;;6097553;23;20413;-74
2023/01/22 03:51:10;;;;;;;;;;;;;;;;;;6097290;23;19920;-75
2023/01/22 03:53:35;;;;;;;;;;;;;;;;;;6123019;23;19920;-74
2023/01/22 03:56:02;;;;;;;;;;;;;;;;;;6073574;23;20412;-74
2023/01/22 03:58:29;;;;;;;;;;;;;;;;;;6097130;23;20294;-75
2023/01/22 04:00:56;;;;;;;;;;;;;;;;;;6123194;23;19995;-75
2023/01/22 04:03:22;;;;;;;;;;;;;;;;;;6123061;23;19936;-74
2023/01/22 04:05:47;;;;;;;;;;;;;;;;;;6096531;23;19913;-75
2023/01/22 04:08:13;;;;;;;;;;;;;;;;;;6096895;23;19972;-74
2023/01/22 04:10:41;;;;;;;;;;;;;;;;;;6096426;23;19913;-74
2023/01/22 04:13:07;;;;;;;;;;;;;;;;;;6096761;23;19927;-74
2023/01/22 04:15:33;;;;;;;;;;;;;;;;;;6096448;23;19963;-74
2023/01/22 04:18:03;;;;;;;;;;;;;;;;;;6073589;23;19935;-74
2023/01/22 04:20:49;;;;;;;;;;;;;;;;;;6121869;23;20397;-75
2023/01/22 04:23:24;;;;;;;;;;;;;;;;;;6096817;23;19920;-75
2023/01/22 04:25:50;;;;;;;;;;;;;;;;;;6072529;23;20382;-75
2023/01/22 04:28:17;;;;;;;;;;;;;;;;;;6096535;23;19912;-75
2023/01/22 04:30:46;;;;;;;;;;;;;;;;;;6096011;23;19948;-75
2023/01/22 04:33:34;;;;;;;;;;;;;;;;;;6096439;23;20003;-73
2023/01/22 04:36:05;;;;;;;;;;;;;;;;;;6072599;23;20444;-74
2023/01/22 04:38:31;;;;;;;;;;;;;;;;;;6096461;23;19917;-74
2023/01/22 04:40:56;;;;;;;;;;;;;;;;;;6096738;23;19912;-74
2023/01/22 04:43:22;;;;;;;;;;;;;;;;;;6096593;23;19972;-74
2023/01/22 04:45:48;;;;;;;;;;;;;;;;;;6122003;23;19944;-74
2023/01/22 04:48:14;;;;;;;;;;;;;;;;;;6096634;23;19919;-74
2023/01/22 04:50:41;;;;;;;;;;;;;;;;;;6072261;23;20277;-74
2023/01/22 04:53:08;;;;;;;;;;;;;;;;;;6072484;23;19943;-75
2023/01/22 04:55:33;;;;;;;;;;;;;;;;;;6096039;23;19996;-75
2023/01/22 04:58:02;;;;;;;;;;;;;;;;;;6096483;23;19913;-74
2023/01/22 05:00:28;;;;;;;;;;;;;;;;;;6096264;23;20388;-74
2023/01/22 05:02:54;;;;;;;;;;;;;;;;;;6096516;23;19913;-74
2023/01/22 05:05:19;;;;;;;;;;;;;;;;;;6096481;23;19919;-74
2023/01/22 05:07:45;;;;;;;;;;;;;;;;;;6072119;23;19913;-72
2023/01/22 05:10:11;;;;;;;;;;;;;;;;;;6096458;23;19917;-73
2023/01/22 05:12:37;;;;;;;;;;;;;;;;;;6122084;23;20364;-73
2023/01/22 05:15:04;;;;;;;;;;;;;;;;;;6072732;23;20242;-75
2023/01/22 05:17:30;;;;;;;;;;;;;;;;;;6096987;23;19913;-75
2023/01/22 05:19:55;;;;;;;;;;;;;;;;;;6074896;23;19992;-74
2023/01/22 05:22:21;;;;;;;;;;;;;;;;;;6103744;23;19912;-74
2023/01/22 05:24:47;;;;;;;;;;;;;;;;;;6130624;23;19940;-74
2023/01/22 05:27:13;;;;;;;;;;;;;;;;;;6104814;23;19913;-74
2023/01/22 05:29:49;;;;;;;;;;;;;;;;;;6104368;23;19913;-75
2023/01/22 05:32:33;;;;;;;;;;;;;;;;;;6125581;23;20258;-75
2023/01/22 05:35:00;;;;;;;;;;;;;;;;;;6096685;23;19921;-75
2023/01/22 05:37:26;;;;;;;;;;;;;;;;;;6095792;23;20004;-75
2023/01/22 05:39:51;;;;;;;;;;;;;;;;;;6095599;23;19920;-75
2023/01/22 05:42:17;;;;;;;;;;;;;;;;;;6048135;23;19913;-75
2023/01/22 05:44:46;;;;;;;;;;;;;;;;;;6072248;23;19919;-71
2023/01/22 05:47:12;;;;;;;;;;;;;;;;;;6094775;23;19948;-69
2023/01/22 05:49:46;;;;;;;;;;;;;;;;;;6095335;23;19941;-70
2023/01/22 05:52:14;;;;;;;;;;;;;;;;;;6070257;23;19920;-70
2023/01/22 05:54:39;;;;;;;;;;;;;;;;;;6094412;23;20459;-70
2023/01/22 05:57:06;;;;;;;;;;;;;;;;;;6095339;23;19959;-70
2023/01/22 05:59:31;;;;;;;;;;;;;;;;;;6072029;23;19921;-70
2023/01/22 06:02:00;;;;;;;;;;;;;;;;;;6047017;23;19917;-69
2023/01/22 06:04:26;;;;;;;;;;;;;;;;;;6095550;23;19913;-71
2023/01/22 06:06:52;;;;;;;;;;;;;;;;;;6118099;23;19912;-71
2023/01/22 06:09:19;;;;;;;;;;;;;;;;;;6093017;23;20346;-70
2023/01/22 06:11:45;;;;;;;;;;;;;;;;;;6092310;23;19913;-69
2023/01/22 06:14:11;;;;;;;;;;;;;;;;;;6093247;23;19932;-70
2023/01/22 06:16:37;;;;;;;;;;;;;;;;;;6092486;23;19913;-70
2023/01/22 06:19:03;;;;;;;;;;;;;;;;;;6120332;23;20227;-70
2023/01/22 06:21:35;;;;;;;;;;;;;;;;;;6094135;23;19909;-70
2023/01/22 06:24:01;;;;;;;;;;;;;;;;;;6120476;23;19920;-70
2023/01/22 06:26:29;;;;;;;;;;;;;;;;;;6048304;23;19909;-70
2023/01/22 06:28:57;;;;;;;;;;;;;;;;;;6120975;23;20341;-74
2023/01/22 06:31:23;;;;;;;;;;;;;;;;;;6094891;23;19953;-74
2023/01/22 06:33:49;;;;;;;;;;;;;;;;;;6069583;23;19921;-74
2023/01/22 06:36:15;;;;;;;;;;;;;;;;;;6120729;23;19920;-74
2023/01/22 06:38:41;;;;;;;;;;;;;;;;;;6095298;23;19917;-74
2023/01/22 06:41:09;;;;;;;;;;;;;;;;;;6071155;23;19913;-74
2023/01/22 06:43:36;;;;;;;;;;;;;;;;;;6070514;23;20020;-74
2023/01/22 06:46:02;;;;;;;;;;;;;;;;;;6094534;23;19916;-74
2023/01/22 06:48:46;;;;;;;;;;;;;;;;;;6096782;23;19956;-72
2023/01/22 06:51:12;;;;;;;;;;;;;;;;;;6093516;23;19913;-73
2023/01/22 06:53:37;;;;;;;;;;;;;;;;;;6092938;23;19924;-73
2023/01/22 06:56:03;;;;;;;;;;;;;;;;;;6069094;23;20269;-73
2023/01/22 06:58:29;;;;;;;;;;;;;;;;;;6092950;23;19936;-72
2023/01/22 07:00:55;;;;;;;;;;;;;;;;;;6118552;23;19921;-73
2023/01/22 07:03:20;;;;;;;;;;;;;;;;;;6119171;23;20341;-72
2023/01/22 07:05:46;;;;;;;;;;;;;;;;;;6093904;23;19919;-73
2023/01/22 07:08:12;;;;;;;;;;;;;;;;;;6119293;23;19912;-73
2023/01/22 07:10:37;;;;;;;;;;;;;;;;;;6119993;23;19917;-73
2023/01/22 07:13:03;;;;;;;;;;;;;;;;;;6093406;23;19921;-73
2023/01/22 07:15:29;;;;;;;;;;;;;;;;;;6093931;23;20334;-73
2023/01/22 07:17:54;;;;;;;;;;;;;;;;;;6093453;23;20383;-72
2023/01/22 07:20:20;;;;;;;;;;;;;;;;;;6093971;23;19941;-72
2023/01/22 07:22:45;;;;;;;;;;;;;;;;;;6119273;23;19920;-72
2023/01/22 07:25:11;;;;;;;;;;;;;;;;;;6093718;23;19937;-73
2023/01/22 07:27:38;;;;;;;;;;;;;;;;;;6119396;23;20352;-72
2023/01/22 07:30:03;;;;;;;;;;;;;;;;;;6093545;23;19917;-72
2023/01/22 07:32:29;;;;;;;;;;;;;;;;;;6093863;23;20003;-73
2023/01/22 07:34:55;;;;;;;;;;;;;;;;;;6094253;23;19927;-73
2023/01/22 07:37:21;;;;;;;;;;;;;;;;;;6094189;23;19917;-73
2023/01/22 07:39:46;;;;;;;;;;;;;;;;;;6094148;23;19913;-73
2023/01/22 07:42:12;;;;;;;;;;;;;;;;;;6094341;23;20273;-73
2023/01/22 07:44:40;;;;;;;;;;;;;;;;;;6120143;23;19972;-73
2023/01/22 07:47:06;;;;;;;;;;;;;;;;;;6094309;23;19916;-72
2023/01/22 07:49:32;;;;;;;;;;;;;;;;;;6094852;23;20423;-73
2023/01/22 07:51:57;;;;;;;;;;;;;;;;;;6120495;23;20443;-73
2023/01/22 07:54:23;;;;;;;;;;;;;;;;;;6070876;23;20297;-73
2023/01/22 07:56:49;;;;;;;;;;;;;;;;;;6121554;23;19917;-73
2023/01/22 07:59:15;;;;;;;;;;;;;;;;;;6096061;23;19912;-73
2023/01/22 08:01:40;;;;;;;;;;;;;;;;;;6121212;23;19961;-73
2023/01/22 08:04:06;;;;;;;;;;;;;;;;;;6092508;23;20048;-72
2023/01/22 08:06:31;;;;;;;;;;;;;;;;;;6119383;23;19940;-73
2023/01/22 08:09:00;;;;;;;;;;;;;;;;;;6119210;23;19945;-72
2023/01/22 08:11:26;;;;;;;;;;;;;;;;;;6092999;23;19921;-73
2023/01/22 08:13:51;;;;;;;;;;;;;;;;;;6093464;23;19921;-74
2023/01/22 08:16:17;;;;;;;;;;;;;;;;;;6119772;23;20376;-74
2023/01/22 08:18:43;;;;;;;;;;;;;;;;;;6121442;23;19913;-73
2023/01/22 08:21:09;;;;;;;;;;;;;;;;;;6097231;23;19913;-72
2023/01/22 08:23:34;;;;;;;;;;;;;;;;;;6124845;23;19940;-73
2023/01/22 08:26:00;;;;;;;;;;;;;;;;;;6097841;23;20305;-73
2023/01/22 08:28:26;;;;;;;;;;;;;;;;;;6124650;23;19913;-73
2023/01/22 08:30:53;;;;;;;;;;;;;;;;;;6097570;23;20305;-71
2023/01/22 08:33:19;;;;;;;;;;;;;;;;;;6097366;23;19956;-73
2023/01/22 08:35:44;;;;;;;;;;;;;;;;;;6072898;23;20495;-72
2023/01/22 08:38:10;;;;;;;;;;;;;;;;;;6095376;23;19917;-72
2023/01/22 08:40:36;;;;;;;;;;;;;;;;;;6095374;23;20334;-73
2023/01/22 08:43:01;;;;;;;;;;;;;;;;;;6118266;23;19912;-70
2023/01/22 08:45:27;;;;;;;;;;;;;;;;;;6088350;23;19912;-72
2023/01/22 08:47:53;;;;;;;;;;;;;;;;;;6068424;23;19912;-70
2023/01/22 08:50:18;;;;;;;;;;;;;;;;;;6119588;23;19932;-72
2023/01/22 08:52:45;;;;;;;;;;;;;;;;;;6119339;23;19939;-71
2023/01/22 08:55:10;;;;;;;;;;;;;;;;;;6120072;23;19917;-71
2023/01/22 08:57:36;;;;;;;;;;;;;;;;;;6120033;23;20319;-70
2023/01/22 09:00:02;;;;;;;;;;;;;;;;;;6120362;23;19913;-71
2023/01/22 09:02:28;;;;;;;;;;;;;;;;;;6119497;23;19948;-72
2023/01/22 09:04:54;;;;;;;;;;;;;;;;;;6119374;23;19932;-71
2023/01/22 09:07:20;;;;;;;;;;;;;;;;;;6120323;23;19936;-71
2023/01/22 09:09:45;;;;;;;;;;;;;;;;;;6118874;23;19924;-71
2023/01/22 09:12:11;;;;;;;;;;;;;;;;;;6119275;23;20237;-71
2023/01/22 09:14:37;;;;;;;;;;;;;;;;;;6116364;23;19949;-70
2023/01/22 09:17:02;;;;;;;;;;;;;;;;;;6117852;23;19913;-71
2023/01/22 09:19:28;;;;;;;;;;;;;;;;;;6092104;23;19908;-71
2023/01/22 09:21:53;;;;;;;;;;;;;;;;;;6119139;23;20340;-71
2023/01/22 09:24:19;;;;;;;;;;;;;;;;;;6118207;23;19923;-70
2023/01/22 09:26:45;;;;;;;;;;;;;;;;;;6118884;23;20454;-70
2023/01/22 09:29:10;;;;;;;;;;;;;;;;;;6117895;23;19924;-70
2023/01/22 09:31:36;;;;;;;;;;;;;;;;;;6119192;23;19928;-71
2023/01/22 09:34:02;;;;;;;;;;;;;;;;;;6069443;23;19924;-71
2023/01/22 09:36:28;;;;;;;;;;;;;;;;;;6117963;23;19912;-71
2023/01/22 09:38:53;;;;;;;;;;;;;;;;;;6118414;23;19923;-70
2023/01/22 09:41:19;;;;;;;;;;;;;;;;;;6119252;23;19945;-71
2023/01/22 09:43:45;;;;;;;;;;;;;;;;;;6118193;23;19913;-72
2023/01/22 09:46:13;;;;;;;;;;;;;;;;;;6045318;23;20308;-70
2023/01/22 09:48:38;;;;;;;;;;;;;;;;;;6118317;23;20044;-71
2023/01/22 09:51:05;;;;;;;;;;;;;;;;;;6118932;23;19913;-70
2023/01/22 09:53:30;;;;;;;;;;;;;;;;;;6092921;23;19921;-70
2023/01/22 09:55:56;;;;;;;;;;;;;;;;;;6119355;23;20633;-71
2023/01/22 09:58:22;;;;;;;;;;;;;;;;;;6119503;23;19919;-70
2023/01/22 10:00:48;;;;;;;;;;;;;;;;;;6093859;23;19920;-70
2023/01/22 10:03:14;;;;;;;;;;;;;;;;;;6119076;23;20084;-71
2023/01/22 10:05:39;;;;;;;;;;;;;;;;;;6119877;23;20449;-71
2023/01/22 10:08:05;;;;;;;;;;;;;;;;;;6119198;23;19936;-71
2023/01/22 10:10:30;;;;;;;;;;;;;;;;;;6092706;23;19917;-69
2023/01/22 10:12:56;;;;;;;;;;;;;;;;;;6096187;23;20017;-70
2023/01/22 10:15:22;;;;;;;;;;;;;;;;;;6092979;23;19919;-71
2023/01/22 10:17:47;;;;;;;;;;;;;;;;;;6118943;23;19920;-69
2023/01/22 10:20:13;;;;;;;;;;;;;;;;;;6118109;23;19944;-69
2023/01/22 10:22:39;;;;;;;;;;;;;;;;;;6117888;23;19913;-69
2023/01/22 10:25:04;;;;;;;;;;;;;;;;;;6119215;23;19995;-69
2023/01/22 10:27:30;;;;;;;;;;;;;;;;;;6092863;23;19913;-71
2023/01/22 10:29:56;;;;;;;;;;;;;;;;;;6092225;23;19913;-76
2023/01/22 10:32:22;;;;;;;;;;;;;;;;;;6095178;23;19913;-75
2023/01/22 10:34:48;;;;;;;;;;;;;;;;;;6119260;23;19925;-74
2023/01/22 10:37:14;;;;;;;;;;;;;;;;;;6093374;23;19920;-74
2023/01/22 10:39:39;;;;;;;;;;;;;;;;;;6118877;23;19919;-73
2023/01/22 10:42:05;;;;;;;;;;;;;;;;;;6095519;23;19923;-73
2023/01/22 10:44:31;;;;;;;;;;;;;;;;;;6121203;23;19995;-73
2023/01/22 10:46:57;;;;;;;;;;;;;;;;;;6092258;23;20471;-74
2023/01/22 10:49:22;;;;;;;;;;;;;;;;;;6119235;23;19996;-74
2023/01/22 10:51:51;;;;;;;;;;;;;;;;;;6119642;23;20298;-73
2023/01/22 10:54:17;;;;;;;;;;;;;;;;;;6119526;23;19952;-73
2023/01/22 10:56:46;;;;;;;;;;;;;;;;;;6118970;23;19912;-73
2023/01/22 10:59:14;;;;;;;;;;;;;;;;;;6119940;23;19916;-73
2023/01/22 11:01:39;;;;;;;;;;;;;;;;;;6119695;23;19948;-73
2023/01/22 11:04:05;;;;;;;;;;;;;;;;;;6094569;23;19920;-72
2023/01/22 11:06:30;;;;;;;;;;;;;;;;;;6120742;23;20364;-73
2023/01/22 11:09:02;;;;;;;;;;;;;;;;;;6120210;23;19913;-73
2023/01/22 11:11:29;;;;;;;;;;;;;;;;;;6119919;23;19913;-73
2023/01/22 11:13:54;;;;;;;;;;;;;;;;;;6119167;23;19943;-73
2023/01/22 11:16:20;;;;;;;;;;;;;;;;;;6119848;23;19991;-73
2023/01/22 11:18:46;;;;;;;;;;;;;;;;;;6119962;23;19917;-72
2023/01/22 11:21:12;;;;;;;;;;;;;;;;;;6070526;23;19913;-73
2023/01/22 11:23:37;;;;;;;;;;;;;;;;;;6094305;23;19978;-72
2023/01/22 11:26:03;;;;;;;;;;;;;;;;;;6093578;23;19913;-72
2023/01/22 11:28:28;;;;;;;;;;;;;;;;;;6121558;23;19913;-72
2023/01/22 11:30:54;;;;;;;;;;;;;;;;;;6121194;23;19928;-72
2023/01/22 11:33:20;;;;;;;;;;;;;;;;;;6121725;23;20398;-71
2023/01/22 11:35:46;;;;;;;;;;;;;;;;;;6095446;23;19921;-73
2023/01/22 11:38:12;;;;;;;;;;;;;;;;;;6122329;23;19917;-72
2023/01/22 11:40:38;;;;;;;;;;;;;;;;;;6122145;23;19913;-72
2023/01/22 11:43:04;;;;;;;;;;;;;;;;;;6122069;23;19960;-72
2023/01/22 11:45:32;;;;;;;;;;;;;;;;;;6121873;23;19937;-72
2023/01/22 11:47:58;;;;;;;;;;;;;;;;;;6095660;23;19913;-73
2023/01/22 11:50:24;;;;;;;;;;;;;;;;;;6121117;23;19959;-72
2023/01/22 11:52:50;;;;;;;;;;;;;;;;;;6121636;23;19923;-72
2023/01/22 11:55:15;;;;;;;;;;;;;;;;;;6097311;23;20329;-73
2023/01/22 11:57:42;;;;;;;;;;;;;;;;;;6123141;23;19917;-72
2023/01/22 12:00:09;;;;;;;;;;;;;;;;;;6123359;23;19960;-73
2023/01/22 12:02:35;;;;;;;;;;;;;;;;;;6097252;23;19912;-72
2023/01/22 12:05:00;;;;;;;;;;;;;;;;;;6123926;23;19986;-72
2023/01/22 12:07:26;;;;;;;;;;;;;;;;;;6098033;23;19919;-72
2023/01/22 12:09:52;;;;;;;;;;;;;;;;;;6127409;23;19917;-72
2023/01/22 12:12:17;;;;;;;;;;;;;;;;;;6128208;23;19929;-72
2023/01/22 12:14:44;;;;;;;;;;;;;;;;;;6102760;23;19924;-73
2023/01/22 12:17:10;;;;;;;;;;;;;;;;;;6102550;23;19920;-73
2023/01/22 12:19:36;;;;;;;;;;;;;;;;;;6124504;23;19913;-72
2023/01/22 12:22:01;;;;;;;;;;;;;;;;;;6096329;23;19959;-72
2023/01/22 12:24:27;;;;;;;;;;;;;;;;;;6123055;23;19913;-72
2023/01/22 12:26:52;;;;;;;;;;;;;;;;;;6097098;23;20345;-73
2023/01/22 12:29:18;;;;;;;;;;;;;;;;;;6123035;23;19919;-73
2023/01/22 12:31:44;;;;;;;;;;;;;;;;;;6122409;23;19921;-73
2023/01/22 12:34:13;;;;;;;;;;;;;;;;;;6097196;23;19921;-72
2023/01/22 12:36:39;;;;;;;;;;;;;;;;;;6122874;23;19952;-72
2023/01/22 12:39:05;;;;;;;;;;;;;;;;;;6122565;23;19913;-72
2023/01/22 12:41:30;;;;;;;;;;;;;;;;;;6122705;23;19913;-72
2023/01/22 12:43:56;;;;;;;;;;;;;;;;;;6072262;23;19920;-72
2023/01/22 12:46:24;;;;;;;;;;;;;;;;;;6122705;23;19913;-72
2023/01/22 12:48:53;;;;;;;;;;;;;;;;;;6096988;23;19920;-73
2023/01/22 12:51:18;;;;;;;;;;;;;;;;;;6122578;23;19913;-73
2023/01/22 12:53:44;;;;;;;;;;;;;;;;;;6122091;23;19921;-72
2023/01/22 12:56:10;;;;;;;;;;;;;;;;;;6122735;23;20000;-72
2023/01/22 12:58:35;;;;;;;;;;;;;;;;;;6122795;23;19968;-72
2023/01/22 13:01:01;;;;;;;;;;;;;;;;;;6122130;23;19923;-72
2023/01/22 13:03:27;;;;;;;;;;;;;;;;;;6122056;23;19913;-72
2023/01/22 13:05:53;;;;;;;;;;;;;;;;;;6096223;23;19908;-72
2023/01/22 13:08:18;;;;;;;;;;;;;;;;;;6122561;23;19913;-72
2023/01/22 13:10:44;;;;;;;;;;;;;;;;;;6096547;23;19913;-72
2023/01/22 13:13:09;;;;;;;;;;;;;;;;;;6122360;23;19927;-72
2023/01/22 13:15:36;;;;;;;;;;;;;;;;;;6122358;23;19952;-72
2023/01/22 13:18:01;;;;;;;;;;;;;;;;;;6095899;23;19917;-72
2023/01/22 13:20:27;;;;;;;;;;;;;;;;;;6121652;23;19920;-71
2023/01/22 13:22:53;;;;;;;;;;;;;;;;;;6121442;23;19945;-73
2023/01/22 13:25:19;;;;;;;;;;;;;;;;;;6121738;23;19941;-73
2023/01/22 13:27:44;;;;;;;;;;;;;;;;;;6121848;23;20318;-72
2023/01/22 13:30:10;;;;;;;;;;;;;;;;;;6121520;23;19919;-72
2023/01/22 13:32:36;;;;;;;;;;;;;;;;;;6121634;23;19912;-72
2023/01/22 13:35:02;;;;;;;;;;;;;;;;;;6120718;23;19971;-73
2023/01/22 13:37:29;;;;;;;;;;;;;;;;;;6121899;23;19919;-72
2023/01/22 13:39:55;;;;;;;;;;;;;;;;;;6121322;23;19913;-72
2023/01/22 13:42:21;;;;;;;;;;;;;;;;;;6121028;23;19946;-73
2023/01/22 13:44:47;;;;;;;;;;;;;;;;;;6121745;23;19937;-74
2023/01/22 13:47:13;;;;;;;;;;;;;;;;;;6121403;23;19912;-72
2023/01/22 13:49:38;;;;;;;;;;;;;;;;;;6121250;23;19920;-72
2023/01/22 13:52:04;;;;;;;;;;;;;;;;;;6121446;23;20484;-72
2023/01/22 13:54:30;;;;;;;;;;;;;;;;;;6071553;23;20364;-71
2023/01/22 13:56:55;;;;;;;;;;;;;;;;;;6121210;23;19940;-72
2023/01/22 13:59:21;;;;;;;;;;;;;;;;;;6095617;23;19917;-72
2023/01/22 14:01:47;;;;;;;;;;;;;;;;;;6095259;23;19917;-72
2023/01/22 14:04:12;;;;;;;;;;;;;;;;;;6095582;23;20289;-72
2023/01/22 14:06:38;;;;;;;;;;;;;;;;;;6095655;23;19912;-73
2023/01/22 14:09:04;;;;;;;;;;;;;;;;;;6121006;23;19964;-72
2023/01/22 14:11:29;;;;;;;;;;;;;;;;;;6095543;23;20004;-72
2023/01/22 14:13:55;;;;;;;;;;;;;;;;;;6071164;23;19921;-73
2023/01/22 14:16:20;;;;;;;;;;;;;;;;;;6121493;23;20274;-72
2023/01/22 14:18:46;;;;;;;;;;;;;;;;;;6121090;23;19936;-72
2023/01/22 14:21:12;;;;;;;;;;;;;;;;;;6120842;23;19913;-71
2023/01/22 14:23:37;;;;;;;;;;;;;;;;;;6121138;23;19982;-71
2023/01/22 14:26:03;;;;;;;;;;;;;;;;;;6121044;23;19939;-72
2023/01/22 14:28:28;;;;;;;;;;;;;;;;;;6121120;23;19992;-73
2023/01/22 14:30:54;;;;;;;;;;;;;;;;;;6121033;23;19984;-72
2023/01/22 14:33:20;;;;;;;;;;;;;;;;;;6095417;23;20362;-72
2023/01/22 14:35:46;;;;;;;;;;;;;;;;;;6121286;23;19920;-71
2023/01/22 14:38:12;;;;;;;;;;;;;;;;;;6095004;23;19975;-72
2023/01/22 14:40:37;;;;;;;;;;;;;;;;;;6121164;23;19913;-72
2023/01/22 14:43:03;;;;;;;;;;;;;;;;;;6071118;23;19959;-71
2023/01/22 14:45:29;;;;;;;;;;;;;;;;;;6121226;23;19920;-72
2023/01/22 14:47:54;;;;;;;;;;;;;;;;;;6120863;23;19999;-71
2023/01/22 14:50:20;;;;;;;;;;;;;;;;;;6121458;23;19913;-71
2023/01/22 14:52:46;;;;;;;;;;;;;;;;;;6095357;23;19920;-71
2023/01/22 14:55:12;;;;;;;;;;;;;;;;;;6121245;23;19991;-72
2023/01/22 14:57:38;;;;;;;;;;;;;;;;;;6121350;23;19913;-72
2023/01/22 15:00:04;;;;;;;;;;;;;;;;;;6121129;23;19916;-72
2023/01/22 15:02:30;;;;;;;;;;;;;;;;;;6122180;23;20752;-72
2023/01/22 15:04:55;;;;;;;;;;;;;;;;;;6122788;23;20262;-72
2023/01/22 15:07:21;;;;;;;;;;;;;;;;;;6097382;23;19996;-72
2023/01/22 15:09:46;;;;;;;;;;;;;;;;;;6123091;23;20487;-72
2023/01/22 15:12:12;;;;;;;;;;;;;;;;;;6096826;23;19951;-72
2023/01/22 15:14:38;;;;;;;;;;;;;;;;;;6096688;23;19928;-72
2023/01/22 15:17:03;;;;;;;;;;;;;;;;;;6096282;23;20348;-72
2023/01/22 15:19:29;;;;;;;;;;;;;;;;;;6096803;23;19920;-72
2023/01/22 15:21:55;;;;;;;;;;;;;;;;;;6122562;23;19959;-72
2023/01/22 15:24:20;;;;;;;;;;;;;;;;;;6123043;23;19913;-72
2023/01/22 15:26:46;;;;;;;;;;;;;;;;;;6122291;23;19937;-72
2023/01/22 15:29:12;;;;;;;;;;;;;;;;;;6121254;23;19912;-72
2023/01/22 15:31:37;;;;;;;;;;;;;;;;;;6121806;23;19928;-72
2023/01/22 15:34:03;;;;;;;;;;;;;;;;;;6121842;23;20346;-72
2023/01/22 15:36:29;;;;;;;;;;;;;;;;;;6095436;23;19912;-72
2023/01/22 15:38:54;;;;;;;;;;;;;;;;;;6121275;23;19971;-72
2023/01/22 15:41:20;;;;;;;;;;;;;;;;;;6122027;23;19920;-72
2023/01/22 15:43:49;;;;;;;;;;;;;;;;;;6121632;23;20247;-73
2023/01/22 15:46:15;;;;;;;;;;;;;;;;;;6120198;23;20350;-71
2023/01/22 15:48:41;;;;;;;;;;;;;;;;;;6120916;23;19972;-72
2023/01/22 15:51:06;;;;;;;;;;;;;;;;;;6121444;23;19913;-72
2023/01/22 15:53:32;;;;;;;;;;;;;;;;;;6121702;23;19987;-72
2023/01/22 15:55:58;;;;;;;;;;;;;;;;;;6121374;23;19920;-72
2023/01/22 15:58:24;;;;;;;;;;;;;;;;;;6121334;23;19919;-71
2023/01/22 16:00:49;;;;;;;;;;;;;;;;;;6121553;23;19913;-72
2023/01/22 16:03:15;;;;;;;;;;;;;;;;;;6121111;23;19952;-72
2023/01/22 16:05:41;;;;;;;;;;;;;;;;;;6121677;23;19924;-72
2023/01/22 16:08:07;;;;;;;;;;;;;;;;;;6095061;23;19944;-72
2023/01/22 16:10:32;;;;;;;;;;;;;;;;;;6094236;23;19968;-72
2023/01/22 16:12:58;;;;;;;;;;;;;;;;;;6120915;23;19913;-72
2023/01/22 16:15:24;;;;;;;;;;;;;;;;;;6121070;23;19913;-72
2023/01/22 16:17:50;;;;;;;;;;;;;;;;;;6121494;23;19920;-72
2023/01/22 16:20:15;;;;;;;;;;;;;;;;;;6121221;23;20369;-72
2023/01/22 16:22:41;;;;;;;;;;;;;;;;;;6121621;23;19917;-72
2023/01/22 16:25:06;;;;;;;;;;;;;;;;;;6121211;23;19999;-72
2023/01/22 16:27:32;;;;;;;;;;;;;;;;;;6095072;23;19913;-72
2023/01/22 16:29:58;;;;;;;;;;;;;;;;;;6094514;23;19920;-72
2023/01/22 16:32:24;;;;;;;;;;;;;;;;;;6121252;23;19917;-72
2023/01/22 16:34:50;;;;;;;;;;;;;;;;;;6121474;23;19975;-73
2023/01/22 16:37:15;;;;;;;;;;;;;;;;;;6120969;23;20346;-72
2023/01/22 16:39:41;;;;;;;;;;;;;;;;;;6069109;23;19917;-72
2023/01/22 16:42:07;;;;;;;;;;;;;;;;;;6120970;23;19909;-72
2023/01/22 16:44:32;;;;;;;;;;;;;;;;;;6121322;23;19932;-72
2023/01/22 16:46:59;;;;;;;;;;;;;;;;;;6094950;23;19944;-73